Time;durP1;ratioP1;P1;durP2;ratioP2;P2;SDS_P1;SDS_P2;PMS_P1;PMS_P2;Temp;Humidity;BMP_temperature;BMP_pressure;BME280_temperature;BME280_humidity;BME280_pressure;Samples;Min_cycle;Max_cycle;Signal;HPM_P1;HPM_P2
2022/10/31 00:00:07;;;;;;;3.77;3.40;;;5.90;99.90;;;;;;6141358;29;20274;-66
2022/10/31 00:03:15;;;;;;;4.30;2.87;;;5.90;99.90;;;;;;6141148;29;20556;-66
2022/10/31 00:06:20;;;;;;;3.17;3.00;;;5.80;99.90;;;;;;6141639;29;20278;-66
2022/10/31 00:09:25;;;;;;;3.00;2.80;;;5.70;99.90;;;;;;6141435;29;20274;-65
2022/10/31 00:12:30;;;;;;;4.27;3.40;;;5.50;99.90;;;;;;6093993;29;20620;-66
2022/10/31 00:15:36;;;;;;;3.87;3.57;;;5.50;99.90;;;;;;6094337;29;20273;-66
2022/10/31 00:18:41;;;;;;;4.67;3.60;;;5.50;99.90;;;;;;6093901;29;20299;-65
2022/10/31 00:21:46;;;;;;;5.60;3.50;;;5.70;99.90;;;;;;6093980;29;20271;-66
2022/10/31 00:24:51;;;;;;;3.50;3.20;;;5.70;99.90;;;;;;6093761;29;20417;-66
2022/10/31 00:27:56;;;;;;;4.47;3.40;;;5.70;99.90;;;;;;6094028;29;20590;-66
2022/10/31 00:31:03;;;;;;;3.70;3.40;;;5.90;99.90;;;;;;6093859;29;20436;-66
2022/10/31 00:34:10;;;;;;;3.47;3.13;;;5.90;99.90;;;;;;6094050;29;20479;-67
2022/10/31 00:37:14;;;;;;;7.20;3.20;;;6.00;99.90;;;;;;6094039;29;20594;-66
2022/10/31 00:40:21;;;;;;;4.47;3.23;;;6.00;99.90;;;;;;6092412;29;20276;-66
2022/10/31 00:43:26;;;;;;;5.80;3.30;;;6.00;99.90;;;;;;6093553;29;20589;-66
2022/10/31 00:46:32;;;;;;;6.33;3.90;;;6.00;99.90;;;;;;6093681;29;20276;-66
2022/10/31 00:49:37;;;;;;;5.87;3.23;;;5.80;99.90;;;;;;6076660;29;20273;-67
2022/10/31 00:52:41;;;;;;;5.20;3.67;;;5.80;99.90;;;;;;6093331;29;20272;-66
2022/10/31 00:55:46;;;;;;;3.43;3.23;;;5.80;99.90;;;;;;6076996;29;20284;-67
2022/10/31 00:58:51;;;;;;;4.13;3.17;;;5.80;99.90;;;;;;6093591;29;20308;-66
2022/10/31 01:01:58;;;;;;;3.73;3.10;;;5.80;99.90;;;;;;6076521;29;20278;-66
2022/10/31 01:05:04;;;;;;;3.87;3.00;;;5.90;99.90;;;;;;6076690;29;20295;-67
2022/10/31 01:08:15;;;;;;;3.37;3.00;;;5.90;99.90;;;;;;6078227;29;20282;-67
2022/10/31 01:11:23;;;;;;;3.23;3.03;;;6.00;99.90;;;;;;6108100;29;20292;-67
2022/10/31 01:14:27;;;;;;;3.10;2.77;;;6.00;99.90;;;;;;6100120;29;20270;-67
2022/10/31 01:17:36;;;;;;;5.23;3.50;;;6.00;99.90;;;;;;6099547;29;20301;-67
2022/10/31 01:20:40;;;;;;;4.20;3.27;;;6.00;99.90;;;;;;6116631;29;20579;-67
2022/10/31 01:23:46;;;;;;;3.20;3.00;;;6.10;99.90;;;;;;6099442;29;20275;-67
2022/10/31 01:26:50;;;;;;;2.93;2.83;;;6.10;99.90;;;;;;6116608;29;20576;-67
2022/10/31 01:29:55;;;;;;;3.17;2.80;;;6.10;99.90;;;;;;6116605;29;20375;-66
2022/10/31 01:33:01;;;;;;;3.97;3.13;;;6.00;99.90;;;;;;6116459;29;20272;-66
2022/10/31 01:36:19;;;;;;;3.03;2.90;;;6.00;99.90;;;;;;6099692;29;20482;-67
2022/10/31 01:39:27;;;;;;;3.07;2.87;;;6.00;99.90;;;;;;6099772;29;20296;-66
2022/10/31 01:42:32;;;;;;;3.63;3.30;;;6.00;99.90;;;;;;6099343;29;20480;-66
2022/10/31 01:45:37;;;;;;;4.35;3.25;;;6.00;99.90;;;;;;6116284;29;20350;-68
2022/10/31 01:48:43;;;;;;;3.00;2.80;;;6.10;99.90;;;;;;6116439;29;20272;-66
2022/10/31 01:51:51;;;;;;;3.17;2.60;;;6.10;99.90;;;;;;6115812;29;20276;-66
2022/10/31 01:55:00;;;;;;;3.22;2.97;;;6.10;99.90;;;;;;6116253;29;20269;-66
2022/10/31 01:58:12;;;;;;;3.03;2.67;;;6.10;99.90;;;;;;6099167;29;20300;-66
2022/10/31 02:01:18;;;;;;;5.03;2.90;;;6.10;99.90;;;;;;6116957;29;20438;-66
2022/10/31 02:04:26;;;;;;;3.00;2.80;;;6.10;99.90;;;;;;6120526;29;20292;-66
2022/10/31 02:07:37;;;;;;;3.10;2.80;;;6.10;99.90;;;;;;6120554;29;20279;-67
2022/10/31 02:10:44;;;;;;;6.20;2.83;;;6.10;99.90;;;;;;6113960;29;20302;-67
2022/10/31 02:13:49;;;;;;;4.60;3.20;;;6.10;99.90;;;;;;6127103;29;20277;-67
2022/10/31 02:16:55;;;;;;;6.27;2.83;;;6.20;99.90;;;;;;6143512;29;20271;-66
2022/10/31 02:20:13;;;;;;;3.13;2.93;;;6.20;99.90;;;;;;6127142;29;20291;-66
2022/10/31 02:24:01;;;;;;;4.20;2.70;;;6.20;99.90;;;;;;6126519;29;20282;-66
2022/10/31 02:27:33;;;;;;;5.17;2.73;;;6.20;99.90;;;;;;6127109;29;20459;-66
2022/10/31 02:31:08;;;;;;;2.90;2.40;;;6.20;99.90;;;;;;6126863;29;20275;-67
2022/10/31 02:34:20;;;;;;;4.70;2.90;;;6.20;99.90;;;;;;6122620;29;20279;-67
2022/10/31 02:37:30;;;;;;;3.37;3.07;;;6.30;99.90;;;;;;6126828;29;20287;-67
2022/10/31 02:40:39;;;;;;;3.10;2.80;;;6.20;99.90;;;;;;6143030;29;20293;-67
2022/10/31 02:44:13;;;;;;;3.57;3.00;;;6.30;99.90;;;;;;6143425;29;20279;-66
2022/10/31 02:47:22;;;;;;;9.03;3.33;;;6.30;99.90;;;;;;6126738;29;20276;-66
2022/10/31 02:50:32;;;;;;;5.20;3.20;;;6.30;99.90;;;;;;6126534;29;20446;-66
2022/10/31 02:53:39;;;;;;;4.50;3.10;;;6.30;99.90;;;;;;6126252;29;20292;-67
2022/10/31 02:56:46;;;;;;;8.27;3.47;;;6.40;99.90;;;;;;6126617;29;20275;-67
2022/10/31 02:59:57;;;;;;;4.07;3.17;;;6.40;99.90;;;;;;6126212;29;20291;-66
2022/10/31 03:03:04;;;;;;;5.10;3.33;;;6.40;99.90;;;;;;6125718;29;20275;-66
2022/10/31 03:06:15;;;;;;;5.43;2.83;;;6.40;99.90;;;;;;6125732;29;20271;-66
2022/10/31 03:09:26;;;;;;;7.37;3.40;;;6.50;99.90;;;;;;6125456;29;20282;-66
2022/10/31 03:12:39;;;;;;;4.57;3.20;;;6.50;99.90;;;;;;6095544;29;20317;-66
2022/10/31 03:15:54;;;;;;;5.13;3.05;;;6.60;99.90;;;;;;6079204;29;20292;-66
2022/10/31 03:19:02;;;;;;;8.90;3.37;;;6.60;99.90;;;;;;6095249;29;20303;-66
2022/10/31 03:22:14;;;;;;;7.72;3.42;;;6.60;99.90;;;;;;6078965;29;20280;-66
2022/10/31 03:25:20;;;;;;;3.40;3.20;;;6.60;99.90;;;;;;6095459;29;20577;-66
2022/10/31 03:28:30;;;;;;;5.53;3.20;;;6.60;99.90;;;;;;6094396;29;20273;-65
2022/10/31 03:31:39;;;;;;;6.03;2.90;;;6.70;99.90;;;;;;6078829;29;20277;-66
2022/10/31 03:34:45;;;;;;;6.50;3.42;;;6.70;99.90;;;;;;6094871;29;20276;-66
2022/10/31 03:37:55;;;;;;;8.47;3.50;;;6.80;99.90;;;;;;6078694;29;20269;-66
2022/10/31 03:41:02;;;;;;;5.15;3.45;;;6.80;99.90;;;;;;6094639;29;20591;-66
2022/10/31 03:44:13;;;;;;;8.57;3.33;;;6.80;99.90;;;;;;6093523;29;20272;-67
2022/10/31 03:47:18;;;;;;;6.47;2.80;;;6.90;99.90;;;;;;6078377;29;20278;-66
2022/10/31 03:50:30;;;;;;;2.97;2.78;;;6.90;99.90;;;;;;6078293;29;20276;-66
2022/10/31 03:53:41;;;;;;;6.47;3.30;;;6.90;99.90;;;;;;6094537;29;20281;-66
2022/10/31 03:56:53;;;;;;;5.50;2.90;;;7.00;99.90;;;;;;6093336;29;20461;-66
2022/10/31 04:00:05;;;;;;;6.25;3.00;;;7.10;99.90;;;;;;6094332;29;20438;-66
2022/10/31 04:03:26;;;;;;;10.07;3.42;;;7.10;99.90;;;;;;6094377;29;20353;-67
2022/10/31 04:06:33;;;;;;;3.78;2.58;;;7.30;99.90;;;;;;6093178;29;20276;-66
2022/10/31 04:09:43;;;;;;;14.32;3.50;;;7.30;99.90;;;;;;6079373;29;20465;-67
2022/10/31 04:12:53;;;;;;;6.70;3.30;;;7.40;99.90;;;;;;6100768;29;20272;-66
2022/10/31 04:16:01;;;;;;;9.95;3.60;;;7.50;99.90;;;;;;6100945;29;20281;-67
2022/10/31 04:19:07;;;;;;;11.07;3.50;;;7.70;99.90;;;;;;6117661;29;20299;-66
2022/10/31 04:22:12;;;;;;;9.27;3.15;;;7.80;99.90;;;;;;6100839;29;20279;-66
2022/10/31 04:25:18;;;;;;;13.30;3.67;;;7.80;99.90;;;;;;6099995;29;20275;-66
2022/10/31 04:28:24;;;;;;;13.75;3.92;;;7.90;99.90;;;;;;6100518;29;20268;-66
2022/10/31 04:31:29;;;;;;;10.18;3.53;;;7.90;99.90;;;;;;6117461;29;20275;-66
2022/10/31 04:34:34;;;;;;;10.32;3.85;;;8.00;99.90;;;;;;6100128;29;20271;-65
2022/10/31 04:37:39;;;;;;;13.15;4.15;;;8.00;99.90;;;;;;6100618;29;20280;-67
2022/10/31 04:40:46;;;;;;;9.82;4.22;;;8.10;99.90;;;;;;6100539;29;20292;-67
2022/10/31 04:44:26;;;;;;;12.45;4.15;;;8.10;99.90;;;;;;6106816;29;20461;-67
2022/10/31 04:47:36;;;;;;;16.95;4.45;;;8.20;99.90;;;;;;6100461;29;20272;-67
2022/10/31 04:50:43;;;;;;;13.23;5.15;;;8.20;99.90;;;;;;6100378;29;20284;-67
2022/10/31 04:53:48;;;;;;;8.95;4.78;;;8.20;99.90;;;;;;6100157;29;20268;-66
2022/10/31 04:57:14;;;;;;;16.65;4.82;;;8.30;99.90;;;;;;6087382;29;20276;-66
2022/10/31 05:00:22;;;;;;;10.10;4.15;;;8.40;99.90;;;;;;6100080;29;20632;-66
2022/10/31 05:03:27;;;;;;;14.50;4.78;;;8.40;99.90;;;;;;6100253;29;20271;-66
2022/10/31 05:06:32;;;;;;;8.82;4.82;;;8.40;99.90;;;;;;6100071;29;20281;-66
2022/10/31 05:09:37;;;;;;;16.00;5.03;;;8.50;99.90;;;;;;6099723;29;20532;-66
2022/10/31 05:12:48;;;;;;;14.80;4.97;;;8.50;99.90;;;;;;6115126;29;20300;-67
2022/10/31 05:16:06;;;;;;;10.98;4.80;;;8.50;99.90;;;;;;6116933;29;20328;-66
2022/10/31 05:19:29;;;;;;;22.50;6.07;;;8.50;99.90;;;;;;6116916;29;20446;-67
2022/10/31 05:22:59;;;;;;;13.32;5.55;;;8.60;99.90;;;;;;6116941;29;20275;-67
2022/10/31 05:26:05;;;;;;;13.93;5.90;;;8.50;99.90;;;;;;6115062;29;20512;-67
2022/10/31 05:29:12;;;;;;;14.70;5.40;;;8.50;99.90;;;;;;6111805;29;20280;-68
2022/10/31 05:32:17;;;;;;;14.07;5.93;;;8.50;99.90;;;;;;6092196;29;20284;-67
2022/10/31 05:35:57;;;;;;;18.30;5.50;;;8.50;99.90;;;;;;6092882;29;20276;-66
2022/10/31 05:39:11;;;;;;;11.18;5.40;;;8.50;99.90;;;;;;6096842;29;20272;-67
2022/10/31 05:42:23;;;;;;;17.77;5.30;;;8.60;99.90;;;;;;6096793;29;20292;-66
2022/10/31 05:45:30;;;;;;;16.45;5.47;;;8.60;99.90;;;;;;6096678;29;20272;-67
2022/10/31 05:48:39;;;;;;;21.83;5.55;;;8.60;99.90;;;;;;6096516;29;20462;-67
2022/10/31 05:52:02;;;;;;;16.20;5.25;;;8.60;99.90;;;;;;6097387;29;20467;-67
2022/10/31 05:55:15;;;;;;;13.20;5.32;;;8.60;99.90;;;;;;6096640;29;20277;-68
2022/10/31 05:58:35;;;;;;;7.45;4.55;;;8.60;99.90;;;;;;6096289;29;20553;-66
2022/10/31 06:01:44;;;;;;;16.88;4.53;;;8.60;99.90;;;;;;6095796;29;20292;-68
2022/10/31 06:05:24;;;;;;;9.27;4.35;;;8.60;99.90;;;;;;6090170;29;20272;-67
2022/10/31 06:08:30;;;;;;;8.23;3.72;;;8.70;99.90;;;;;;6097308;29;20438;-66
2022/10/31 06:11:38;;;;;;;21.15;4.57;;;8.70;99.90;;;;;;6112657;29;20300;-67
2022/10/31 06:14:43;;;;;;;5.82;4.38;;;8.70;99.90;;;;;;6120557;29;20284;-67
2022/10/31 06:17:59;;;;;;;5.57;4.10;;;8.80;99.90;;;;;;6103895;29;20272;-67
2022/10/31 06:21:07;;;;;;;22.65;4.50;;;8.80;99.90;;;;;;6103546;29;20288;-67
2022/10/31 06:24:14;;;;;;;9.82;3.85;;;8.80;99.90;;;;;;6120176;29;20280;-67
2022/10/31 06:27:39;;;;;;;7.90;4.13;;;8.90;99.90;;;;;;6107195;29;20284;-66
2022/10/31 06:30:50;;;;;;;5.80;4.15;;;8.90;99.90;;;;;;6103255;29;20463;-66
2022/10/31 06:33:57;;;;;;;11.02;5.10;;;8.90;99.90;;;;;;6102881;29;20275;-66
2022/10/31 06:37:02;;;;;;;11.23;4.57;;;9.00;99.90;;;;;;6103392;29;20552;-67
2022/10/31 06:40:09;;;;;;;8.38;4.13;;;9.00;99.90;;;;;;6103070;29;20275;-67
2022/10/31 06:43:34;;;;;;;10.15;3.92;;;9.00;99.90;;;;;;6119407;29;20276;-67
2022/10/31 06:46:55;;;;;;;15.95;4.90;;;9.10;99.90;;;;;;6103042;29;20275;-67
2022/10/31 06:50:17;;;;;;;7.53;4.30;;;9.00;99.90;;;;;;6118414;29;20272;-67
2022/10/31 06:53:24;;;;;;;12.75;4.75;;;9.10;99.90;;;;;;6102590;29;20272;-67
2022/10/31 06:56:30;;;;;;;7.13;4.47;;;9.20;99.90;;;;;;6102865;29;20276;-67
2022/10/31 06:59:36;;;;;;;8.60;4.47;;;9.20;99.90;;;;;;6102953;29;20276;-66
2022/10/31 07:02:56;;;;;;;14.02;4.93;;;9.20;99.90;;;;;;6102563;29;20299;-68
2022/10/31 07:06:02;;;;;;;14.25;5.07;;;9.30;99.90;;;;;;6102130;29;20280;-67
2022/10/31 07:09:09;;;;;;;9.85;5.18;;;9.30;99.90;;;;;;6102161;29;20604;-67
2022/10/31 07:12:14;;;;;;;12.07;5.07;;;9.30;99.90;;;;;;6115802;29;20300;-66
2022/10/31 07:15:26;;;;;;;12.13;5.15;;;9.40;99.90;;;;;;6118043;29;20271;-67
2022/10/31 07:18:31;;;;;;;10.55;5.30;;;9.40;99.90;;;;;;6117706;29;20271;-68
2022/10/31 07:21:37;;;;;;;11.88;5.50;;;9.40;99.90;;;;;;6118684;29;20291;-67
2022/10/31 07:24:43;;;;;;;13.57;5.32;;;9.50;99.90;;;;;;6117967;29;20271;-68
2022/10/31 07:28:20;;;;;;;17.55;6.90;;;9.50;99.90;;;;;;6077061;29;20280;-68
2022/10/31 07:31:28;;;;;;;13.32;5.57;;;9.60;99.90;;;;;;6118000;29;20374;-67
2022/10/31 07:34:39;;;;;;;12.90;5.20;;;9.60;99.90;;;;;;6117592;29;20552;-67
2022/10/31 07:37:55;;;;;;;12.52;5.60;;;9.60;99.90;;;;;;6119068;29;20276;-67
2022/10/31 07:41:00;;;;;;;11.43;5.28;;;9.60;99.90;;;;;;6118746;29;20271;-68
2022/10/31 07:44:08;;;;;;;12.90;5.35;;;9.70;99.90;;;;;;6117325;29;20272;-66
2022/10/31 07:47:43;;;;;;;14.50;5.65;;;9.70;99.90;;;;;;6118008;29;20456;-67
2022/10/31 07:51:07;;;;;;;16.63;6.60;;;9.70;99.90;;;;;;6118509;29;20276;-67
2022/10/31 07:54:32;;;;;;;17.67;6.55;;;9.70;99.90;;;;;;6117968;29;20276;-67
2022/10/31 07:57:37;;;;;;;14.55;6.53;;;9.80;99.90;;;;;;6118418;29;20297;-67
2022/10/31 08:00:45;;;;;;;11.13;6.22;;;9.90;99.90;;;;;;6116995;29;20272;-68
2022/10/31 08:03:54;;;;;;;14.00;6.47;;;9.90;99.90;;;;;;6116765;29;20305;-67
2022/10/31 08:07:22;;;;;;;12.95;6.47;;;9.90;99.90;;;;;;6082415;29;20291;-66
2022/10/31 08:10:38;;;;;;;18.80;7.03;;;10.00;99.90;;;;;;6115301;29;20315;-66
2022/10/31 08:13:45;;;;;;;17.48;6.55;;;10.00;99.90;;;;;;6100873;29;20455;-67
2022/10/31 08:16:52;;;;;;;14.90;6.70;;;10.00;99.90;;;;;;6100683;29;20276;-66
2022/10/31 08:19:57;;;;;;;18.75;6.47;;;10.00;99.90;;;;;;6101180;29;20276;-66
2022/10/31 08:23:13;;;;;;;19.73;6.85;;;10.00;99.90;;;;;;6101102;29;20291;-66
2022/10/31 08:26:21;;;;;;;17.17;6.22;;;10.10;99.90;;;;;;6101092;29;20272;-66
2022/10/31 08:29:27;;;;;;;19.90;7.00;;;10.20;99.90;;;;;;6100666;29;20563;-66
2022/10/31 08:32:33;;;;;;;18.63;7.13;;;10.20;99.90;;;;;;6100295;29;20420;-66
2022/10/31 08:36:01;;;;;;;23.25;8.15;;;10.20;99.90;;;;;;6116715;29;20276;-66
2022/10/31 08:39:38;;;;;;;23.42;8.32;;;10.30;99.90;;;;;;6093199;29;20276;-66
2022/10/31 08:42:46;;;;;;;21.50;7.20;;;10.20;99.90;;;;;;6100323;29;20296;-66
2022/10/31 08:45:51;;;;;;;20.08;7.22;;;10.30;99.90;;;;;;6117182;29;20271;-67
2022/10/31 08:49:04;;;;;;;20.13;7.22;;;10.30;99.90;;;;;;6100558;29;20591;-67
2022/10/31 08:52:10;;;;;;;17.17;6.28;;;10.30;99.90;;;;;;6100749;29;20272;-67
2022/10/31 08:55:19;;;;;;;24.85;7.85;;;10.30;99.90;;;;;;6099858;29;20279;-67
2022/10/31 08:58:44;;;;;;;19.17;7.63;;;10.40;99.90;;;;;;6100068;29;20280;-66
2022/10/31 09:01:49;;;;;;;19.88;7.57;;;10.40;99.90;;;;;;6100057;29;20460;-66
2022/10/31 09:04:55;;;;;;;18.15;6.82;;;10.40;99.90;;;;;;6099807;29;20276;-66
2022/10/31 09:08:02;;;;;;;22.38;7.75;;;10.50;99.90;;;;;;6100285;29;20275;-66
2022/10/31 09:11:09;;;;;;;15.85;6.95;;;10.50;99.90;;;;;;6112452;29;20489;-67
2022/10/31 09:14:34;;;;;;;15.50;7.18;;;10.60;99.90;;;;;;6140235;29;20428;-66
2022/10/31 09:17:57;;;;;;;17.23;6.78;;;10.60;99.90;;;;;;6140083;29;20271;-66
2022/10/31 09:21:09;;;;;;;13.13;7.00;;;10.70;99.90;;;;;;6123140;29;20275;-66
2022/10/31 09:24:14;;;;;;;12.88;6.38;;;10.70;99.90;;;;;;6139958;29;20474;-66
2022/10/31 09:27:19;;;;;;;9.95;6.68;;;10.70;99.90;;;;;;6140280;29;20377;-66
2022/10/31 09:30:28;;;;;;;11.60;6.90;;;10.80;99.90;;;;;;6123381;29;20483;-66
2022/10/31 09:33:32;;;;;;;14.18;7.80;;;10.80;99.90;;;;;;6123134;29;20275;-66
2022/10/31 09:36:57;;;;;;;17.00;7.63;;;10.80;99.90;;;;;;6139714;29;20279;-67
2022/10/31 09:40:02;;;;;;;13.55;7.05;;;10.80;99.90;;;;;;6122676;29;20271;-67
2022/10/31 09:43:22;;;;;;;13.55;6.68;;;10.90;99.90;;;;;;6122803;29;20294;-67
2022/10/31 09:46:36;;;;;;;13.48;6.75;;;10.90;99.90;;;;;;6140092;29;20271;-67
2022/10/31 09:50:03;;;;;;;13.05;6.53;;;11.00;99.90;;;;;;6140142;29;20279;-66
2022/10/31 09:53:17;;;;;;;12.35;6.80;;;11.00;99.90;;;;;;6139730;29;20275;-67
2022/10/31 09:56:23;;;;;;;15.55;7.40;;;11.00;99.90;;;;;;6139981;29;20272;-67
2022/10/31 09:59:37;;;;;;;11.95;7.25;;;11.10;99.90;;;;;;6122679;29;20275;-66
2022/10/31 10:02:47;;;;;;;16.13;7.38;;;11.10;99.90;;;;;;6123094;29;20295;-67
2022/10/31 10:05:58;;;;;;;14.40;7.72;;;11.20;99.90;;;;;;6139249;29;20296;-67
2022/10/31 10:09:17;;;;;;;10.48;7.00;;;11.30;99.90;;;;;;6123136;29;20267;-67
2022/10/31 10:13:28;;;;;;;11.82;7.15;;;11.30;99.90;;;;;;6091311;29;20495;-66
2022/10/31 10:16:45;;;;;;;8.25;6.82;;;11.40;99.90;;;;;;6092459;29;20269;-66
2022/10/31 10:20:21;;;;;;;15.60;7.07;;;11.40;99.90;;;;;;6092471;29;20297;-67
2022/10/31 10:23:39;;;;;;;10.55;6.72;;;11.50;99.90;;;;;;6089863;29;20520;-67
2022/10/31 10:26:51;;;;;;;11.35;7.32;;;11.40;99.90;;;;;;6096775;29;20273;-66
2022/10/31 10:30:03;;;;;;;12.15;7.32;;;11.40;99.90;;;;;;6096676;29;20272;-66
2022/10/31 10:33:13;;;;;;;12.40;7.45;;;11.40;99.90;;;;;;6096764;29;20281;-67
2022/10/31 10:36:26;;;;;;;16.85;8.10;;;11.50;99.90;;;;;;6096633;29;20273;-68
2022/10/31 10:39:38;;;;;;;13.38;8.55;;;11.50;99.90;;;;;;6096476;29;20281;-67
2022/10/31 10:49:51;;;;;;;11.50;7.28;;;11.50;99.90;;;;;;6096545;29;20277;-68
2022/10/31 10:53:07;;;;;;;11.15;7.15;;;11.50;99.90;;;;;;6095941;29;20553;-67
2022/10/31 10:56:18;;;;;;;10.15;7.03;;;11.50;99.90;;;;;;6095927;29;20268;-67
2022/10/31 10:59:23;;;;;;;11.52;7.07;;;11.60;99.90;;;;;;6095892;29;20280;-67
2022/10/31 11:02:32;;;;;;;14.55;8.05;;;11.60;99.90;;;;;;6095916;29;20460;-67
2022/10/31 11:05:42;;;;;;;9.63;7.10;;;11.60;99.90;;;;;;6095890;29;20309;-67
2022/10/31 11:08:49;;;;;;;12.15;7.68;;;11.70;99.90;;;;;;6095840;29;20394;-69
2022/10/31 11:11:55;;;;;;;9.95;7.38;;;11.60;99.90;;;;;;6115103;29;20312;-68
2022/10/31 11:15:07;;;;;;;12.52;7.75;;;11.70;99.90;;;;;;6119022;29;20450;-67
2022/10/31 11:18:23;;;;;;;14.40;7.65;;;11.70;99.90;;;;;;6119056;29;20272;-67
2022/10/31 11:21:34;;;;;;;11.40;7.82;;;11.80;99.90;;;;;;6118701;29;20268;-67
2022/10/31 11:24:42;;;;;;;13.68;7.93;;;11.80;99.90;;;;;;6118579;29;20291;-66
2022/10/31 11:27:47;;;;;;;13.05;8.40;;;11.90;99.90;;;;;;6118895;29;20268;-66
2022/10/31 11:30:55;;;;;;;17.55;8.50;;;11.90;99.90;;;;;;6119022;29;20272;-68
2022/10/31 11:34:02;;;;;;;10.52;8.00;;;11.90;99.90;;;;;;6117629;29;20280;-66
2022/10/31 11:37:16;;;;;;;9.60;7.65;;;12.00;99.90;;;;;;6118258;29;20280;-66
2022/10/31 11:40:24;;;;;;;10.48;7.55;;;12.00;99.90;;;;;;6118235;29;20272;-67
2022/10/31 11:43:29;;;;;;;12.93;7.75;;;12.00;99.90;;;;;;6118474;29;20272;-67
2022/10/31 11:46:36;;;;;;;12.45;7.88;;;12.10;99.90;;;;;;6118370;29;20267;-67
2022/10/31 11:49:43;;;;;;;10.40;7.75;;;12.10;99.90;;;;;;6118267;29;20276;-67
2022/10/31 11:52:48;;;;;;;11.68;7.50;;;12.20;99.90;;;;;;6118358;29;20272;-68
2022/10/31 11:56:10;;;;;;;12.30;7.90;;;12.20;99.90;;;;;;6118208;29;20276;-68
2022/10/31 11:59:28;;;;;;;14.52;7.45;;;12.20;99.90;;;;;;6118031;29;20277;-68
2022/10/31 12:02:33;;;;;;;16.90;7.90;;;12.30;99.90;;;;;;6117342;29;20529;-68
2022/10/31 12:05:38;;;;;;;11.45;7.85;;;12.30;99.90;;;;;;6117608;29;20509;-67
2022/10/31 12:08:43;;;;;;;14.82;7.80;;;12.40;99.90;;;;;;6117557;29;20271;-68
2022/10/31 12:12:06;;;;;;;9.13;7.45;;;12.40;99.90;;;;;;6133320;29;20286;-69
2022/10/31 12:15:37;;;;;;;13.82;7.57;;;12.40;99.90;;;;;;6140580;29;20275;-66
2022/10/31 12:18:58;;;;;;;15.63;7.70;;;12.50;99.90;;;;;;6139206;29;20270;-67
2022/10/31 12:22:14;;;;;;;13.70;7.63;;;12.50;99.90;;;;;;6141282;29;20275;-67
2022/10/31 12:25:36;;;;;;;12.13;7.53;;;12.50;99.90;;;;;;6140899;29;20291;-68
2022/10/31 12:29:08;;;;;;;12.35;8.43;;;12.50;99.90;;;;;;6141078;29;20272;-67
2022/10/31 12:32:29;;;;;;;10.18;7.22;;;12.50;99.90;;;;;;6139364;29;20283;-67
2022/10/31 12:35:46;;;;;;;10.65;7.35;;;12.60;99.90;;;;;;6141030;29;20291;-67
2022/10/31 12:39:25;;;;;;;11.90;7.57;;;12.60;99.90;;;;;;6140497;29;20272;-68
2022/10/31 12:42:46;;;;;;;16.30;7.20;;;12.70;99.90;;;;;;6140970;29;20268;-67
2022/10/31 12:45:57;;;;;;;14.50;7.07;;;12.70;99.90;;;;;;6139789;29;20291;-68
2022/10/31 12:49:29;;;;;;;9.48;6.68;;;12.70;99.90;;;;;;6140859;29;20275;-67
2022/10/31 12:52:47;;;;;;;14.30;7.43;;;12.70;99.90;;;;;;6140456;29;20275;-66
2022/10/31 12:56:04;;;;;;;9.73;6.53;;;12.80;99.90;;;;;;6140643;29;20275;-67
2022/10/31 12:59:22;;;;;;;14.38;6.90;;;12.80;99.90;;;;;;6140461;29;20271;-65
2022/10/31 13:02:32;;;;;;;12.30;7.03;;;12.90;99.90;;;;;;6140066;29;20279;-67
2022/10/31 13:05:40;;;;;;;8.00;6.00;;;12.90;99.90;;;;;;6140235;29;20295;-67
2022/10/31 13:08:49;;;;;;;10.55;6.22;;;12.90;99.90;;;;;;6140071;29;20271;-66
2022/10/31 13:11:59;;;;;;;10.90;6.65;;;12.90;99.90;;;;;;6120822;29;20287;-66
2022/10/31 13:15:14;;;;;;;12.35;6.80;;;12.90;99.90;;;;;;6116483;29;20275;-67
2022/10/31 13:18:30;;;;;;;9.63;6.13;;;12.90;99.90;;;;;;6116506;29;20302;-67
2022/10/31 13:21:39;;;;;;;6.57;5.85;;;12.90;99.90;;;;;;6116365;29;20272;-67
2022/10/31 13:24:58;;;;;;;10.95;5.88;;;12.90;99.90;;;;;;6116552;29;20292;-67
2022/10/31 13:28:25;;;;;;;12.65;5.93;;;13.00;99.90;;;;;;6115812;29;20275;-67
2022/10/31 13:31:30;;;;;;;7.47;5.90;;;13.00;99.90;;;;;;6116284;29;20267;-67
2022/10/31 13:34:39;;;;;;;10.65;5.53;;;12.90;99.90;;;;;;6116698;29;20267;-67
2022/10/31 13:37:49;;;;;;;10.73;5.70;;;13.00;99.90;;;;;;6116423;29;20272;-67
2022/10/31 13:41:01;;;;;;;8.43;5.68;;;13.00;99.90;;;;;;6099419;29;20275;-67
2022/10/31 13:44:14;;;;;;;11.32;5.70;;;13.00;99.90;;;;;;6116147;29;20288;-67
2022/10/31 13:47:26;;;;;;;10.43;6.00;;;13.00;99.90;;;;;;6116209;29;20296;-67
2022/10/31 13:50:33;;;;;;;9.10;5.88;;;13.00;99.90;;;;;;6116295;29;20352;-67
2022/10/31 13:53:43;;;;;;;10.15;5.70;;;13.00;99.90;;;;;;6115907;29;20296;-67
2022/10/31 13:56:50;;;;;;;12.55;6.85;;;13.00;99.90;;;;;;6115620;29;20279;-67
2022/10/31 13:59:57;;;;;;;7.40;5.22;;;13.00;99.90;;;;;;6121031;29;20459;-67
2022/10/31 14:03:02;;;;;;;12.65;6.80;;;13.00;99.90;;;;;;6120646;29;20273;-67
2022/10/31 14:06:10;;;;;;;6.65;5.55;;;13.00;99.90;;;;;;6120564;29;20300;-66
2022/10/31 14:09:34;;;;;;;9.93;5.63;;;13.00;99.90;;;;;;6120558;29;20277;-66
2022/10/31 14:12:41;;;;;;;8.40;5.53;;;12.90;99.90;;;;;;6096395;29;20308;-66
2022/10/31 14:15:56;;;;;;;9.57;5.15;;;13.00;99.90;;;;;;6096924;29;20276;-67
2022/10/31 14:19:02;;;;;;;6.05;5.38;;;13.10;99.90;;;;;;6096951;29;20280;-67
2022/10/31 14:22:21;;;;;;;8.68;5.93;;;13.10;99.90;;;;;;6096757;29;20269;-67
2022/10/31 14:25:30;;;;;;;6.78;5.25;;;13.00;99.90;;;;;;6096765;29;20297;-67
2022/10/31 14:28:36;;;;;;;9.63;5.43;;;13.00;99.90;;;;;;6096307;29;20273;-67
2022/10/31 14:31:44;;;;;;;11.80;5.60;;;13.10;99.90;;;;;;6096446;29;20277;-67
2022/10/31 14:34:56;;;;;;;9.65;5.53;;;13.10;99.90;;;;;;6096536;29;20268;-66
2022/10/31 14:38:26;;;;;;;10.05;5.72;;;13.10;99.90;;;;;;6096101;29;20449;-67
2022/10/31 14:41:46;;;;;;;6.70;5.72;;;13.00;99.90;;;;;;6096250;29;20356;-67
2022/10/31 14:45:10;;;;;;;9.52;5.68;;;13.00;99.90;;;;;;6096596;29;20277;-67
2022/10/31 14:48:59;;;;;;;10.10;5.53;;;13.00;99.90;;;;;;6096449;29;20276;-66
2022/10/31 14:52:08;;;;;;;9.40;5.10;;;13.00;99.90;;;;;;6093758;29;20277;-68
2022/10/31 14:55:15;;;;;;;7.43;5.13;;;12.90;99.90;;;;;;6096196;29;20272;-67
2022/10/31 14:58:23;;;;;;;10.02;5.78;;;12.90;99.90;;;;;;6079509;29;20284;-67
2022/10/31 15:01:30;;;;;;;6.80;4.80;;;12.90;99.90;;;;;;6096015;29;20273;-68
2022/10/31 15:04:36;;;;;;;5.97;5.18;;;12.80;99.90;;;;;;6095736;29;20276;-67
2022/10/31 15:07:52;;;;;;;8.02;4.40;;;12.80;99.90;;;;;;6095650;29;20292;-68
2022/10/31 15:10:58;;;;;;;5.43;4.78;;;12.70;99.90;;;;;;6106237;29;20293;-67
2022/10/31 15:14:02;;;;;;;7.60;5.40;;;12.70;99.90;;;;;;6119019;29;20294;-68
2022/10/31 15:17:09;;;;;;;8.25;4.85;;;12.60;99.90;;;;;;6119239;29;20276;-66
2022/10/31 15:20:20;;;;;;;6.95;5.10;;;12.60;99.90;;;;;;6119183;29;20654;-66
2022/10/31 15:23:26;;;;;;;6.00;4.88;;;12.50;99.90;;;;;;6118971;29;20272;-67
2022/10/31 15:26:36;;;;;;;10.35;5.40;;;12.50;99.90;;;;;;6118971;29;20291;-67
2022/10/31 15:29:50;;;;;;;8.20;5.40;;;12.40;99.90;;;;;;6118537;29;20292;-67
2022/10/31 15:32:55;;;;;;;10.45;5.25;;;12.40;99.90;;;;;;6118513;29;20272;-68
2022/10/31 15:36:04;;;;;;;9.88;5.32;;;12.30;99.90;;;;;;6118353;29;20292;-67
2022/10/31 15:39:12;;;;;;;6.07;5.47;;;12.20;99.90;;;;;;6118500;29;20272;-66
2022/10/31 15:42:24;;;;;;;6.28;5.00;;;12.20;99.90;;;;;;6118058;29;20263;-67
2022/10/31 15:45:31;;;;;;;7.70;5.07;;;12.20;99.90;;;;;;6118667;29;20277;-67
2022/10/31 15:48:36;;;;;;;7.72;4.60;;;12.20;99.90;;;;;;6118217;29;20315;-67
2022/10/31 15:51:41;;;;;;;9.52;5.60;;;12.10;99.90;;;;;;6117977;29;20276;-66
2022/10/31 15:54:49;;;;;;;5.97;5.28;;;12.10;99.90;;;;;;6118618;29;20275;-67
2022/10/31 15:57:58;;;;;;;5.40;4.80;;;12.10;99.90;;;;;;6118200;29;20459;-67
2022/10/31 16:01:06;;;;;;;5.95;5.05;;;12.00;99.90;;;;;;6117681;29;20272;-66
2022/10/31 16:04:23;;;;;;;5.18;4.78;;;12.00;99.90;;;;;;6117681;29;20307;-67
2022/10/31 16:07:29;;;;;;;5.32;4.88;;;11.90;99.90;;;;;;6117756;29;20295;-67
2022/10/31 16:10:36;;;;;;;6.40;4.90;;;11.90;99.90;;;;;;6126009;29;20445;-67
2022/10/31 16:13:55;;;;;;;5.95;5.32;;;11.80;99.90;;;;;;6141001;29;20431;-66
2022/10/31 16:17:00;;;;;;;6.47;4.57;;;11.80;99.90;;;;;;6141096;29;20268;-67
2022/10/31 16:20:07;;;;;;;8.80;5.65;;;11.80;99.90;;;;;;6140932;29;20290;-67
2022/10/31 16:23:17;;;;;;;12.75;6.00;;;11.80;99.90;;;;;;6141401;29;20268;-67
2022/10/31 16:26:22;;;;;;;5.88;5.18;;;11.80;99.90;;;;;;6140960;29;20271;-67
2022/10/31 16:29:33;;;;;;;10.00;5.47;;;11.80;99.90;;;;;;6140722;29;20563;-67
2022/10/31 16:32:54;;;;;;;8.27;5.20;;;11.90;99.90;;;;;;6141114;29;20271;-67
2022/10/31 16:36:02;;;;;;;5.88;5.30;;;11.90;99.90;;;;;;6141261;29;20267;-67
2022/10/31 16:39:26;;;;;;;7.63;5.35;;;11.90;99.90;;;;;;6140565;29;20272;-67
2022/10/31 16:42:31;;;;;;;10.77;6.30;;;11.90;99.90;;;;;;6140651;29;20267;-68